sensor_id;sensor_type;location;lat;lon;timestamp;P1;durP1;ratioP1;P2;durP2;ratioP2
71637;SDS011;59485;43.542;-5.676;2022-09-21T00:00:40;6.73;;;0.53;;
71637;SDS011;59485;43.542;-5.676;2022-09-21T00:03:07;6.97;;;0.77;;
71637;SDS011;59485;43.542;-5.676;2022-09-21T00:05:33;7.03;;;1.27;;
71637;SDS011;59485;43.542;-5.676;2022-09-21T00:07:59;7.47;;;0.50;;
71637;SDS011;59485;43.542;-5.676;2022-09-21T00:10:27;6.32;;;0.90;;
71637;SDS011;59485;43.542;-5.676;2022-09-21T00:12:53;6.17;;;0.60;;
71637;SDS011;59485;43.542;-5.676;2022-09-21T00:15:20;4.78;;;0.55;;
71637;SDS011;59485;43.542;-5.676;2022-09-21T00:17:46;4.70;;;0.82;;
71637;SDS011;59485;43.542;-5.676;2022-09-21T00:20:12;7.63;;;0.87;;
71637;SDS011;59485;43.542;-5.676;2022-09-21T00:22:39;6.63;;;0.80;;
71637;SDS011;59485;43.542;-5.676;2022-09-21T00:25:06;5.85;;;0.93;;
71637;SDS011;59485;43.542;-5.676;2022-09-21T00:27:33;3.90;;;0.55;;
71637;SDS011;59485;43.542;-5.676;2022-09-21T00:29:59;5.57;;;0.65;;
71637;SDS011;59485;43.542;-5.676;2022-09-21T00:32:27;10.70;;;0.88;;
71637;SDS011;59485;43.542;-5.676;2022-09-21T00:34:55;5.50;;;0.50;;
71637;SDS011;59485;43.542;-5.676;2022-09-21T00:37:22;6.68;;;0.47;;
71637;SDS011;59485;43.542;-5.676;2022-09-21T00:39:48;6.13;;;0.80;;
71637;SDS011;59485;43.542;-5.676;2022-09-21T00:44:54;5.45;;;0.95;;
71637;SDS011;59485;43.542;-5.676;2022-09-21T00:47:39;7.00;;;0.50;;
71637;SDS011;59485;43.542;-5.676;2022-09-21T00:50:11;10.23;;;0.90;;
71637;SDS011;59485;43.542;-5.676;2022-09-21T00:52:43;11.50;;;0.85;;
71637;SDS011;59485;43.542;-5.676;2022-09-21T00:58:03;6.13;;;0.98;;
71637;SDS011;59485;43.542;-5.676;2022-09-21T01:00:33;5.82;;;0.50;;
71637;SDS011;59485;43.542;-5.676;2022-09-21T01:03:01;5.97;;;0.98;;
71637;SDS011;59485;43.542;-5.676;2022-09-21T01:05:27;5.85;;;0.93;;
71637;SDS011;59485;43.542;-5.676;2022-09-21T01:07:53;5.47;;;0.57;;
71637;SDS011;59485;43.542;-5.676;2022-09-21T01:10:24;7.80;;;0.95;;
71637;SDS011;59485;43.542;-5.676;2022-09-21T01:12:58;5.47;;;0.68;;
71637;SDS011;59485;43.542;-5.676;2022-09-21T01:18:49;5.87;;;0.70;;
71637;SDS011;59485;43.542;-5.676;2022-09-21T01:21:20;5.80;;;0.77;;
71637;SDS011;59485;43.542;-5.676;2022-09-21T01:32:33;6.53;;;0.50;;
71637;SDS011;59485;43.542;-5.676;2022-09-21T01:38:44;4.68;;;0.47;;
71637;SDS011;59485;43.542;-5.676;2022-09-21T01:41:17;6.65;;;0.60;;
71637;SDS011;59485;43.542;-5.676;2022-09-21T01:43:51;5.15;;;0.65;;
71637;SDS011;59485;43.542;-5.676;2022-09-21T01:46:20;4.47;;;0.50;;
71637;SDS011;59485;43.542;-5.676;2022-09-21T01:49:00;4.05;;;0.70;;
71637;SDS011;59485;43.542;-5.676;2022-09-21T01:51:33;6.65;;;0.50;;
71637;SDS011;59485;43.542;-5.676;2022-09-21T01:54:05;7.25;;;0.75;;
71637;SDS011;59485;43.542;-5.676;2022-09-21T01:56:38;9.50;;;1.38;;
71637;SDS011;59485;43.542;-5.676;2022-09-21T02:06:56;5.25;;;0.68;;
71637;SDS011;59485;43.542;-5.676;2022-09-21T02:09:23;6.97;;;1.02;;
71637;SDS011;59485;43.542;-5.676;2022-09-21T02:11:49;5.93;;;0.80;;
71637;SDS011;59485;43.542;-5.676;2022-09-21T02:14:20;3.97;;;0.73;;
71637;SDS011;59485;43.542;-5.676;2022-09-21T02:22:09;8.73;;;0.75;;
71637;SDS011;59485;43.542;-5.676;2022-09-21T02:24:40;2.80;;;0.60;;
71637;SDS011;59485;43.542;-5.676;2022-09-21T02:29:46;5.30;;;0.80;;
71637;SDS011;59485;43.542;-5.676;2022-09-21T02:32:31;7.53;;;0.80;;
71637;SDS011;59485;43.542;-5.676;2022-09-21T02:35:17;5.40;;;0.80;;
71637;SDS011;59485;43.542;-5.676;2022-09-21T02:38:02;4.47;;;0.60;;
71637;SDS011;59485;43.542;-5.676;2022-09-21T02:40:52;4.05;;;0.50;;
71637;SDS011;59485;43.542;-5.676;2022-09-21T02:45:58;7.80;;;1.10;;
71637;SDS011;59485;43.542;-5.676;2022-09-21T02:48:34;6.47;;;0.90;;
71637;SDS011;59485;43.542;-5.676;2022-09-21T02:51:04;4.57;;;0.90;;
71637;SDS011;59485;43.542;-5.676;2022-09-21T02:53:35;8.75;;;0.90;;
71637;SDS011;59485;43.542;-5.676;2022-09-21T02:56:04;6.03;;;0.67;;
71637;SDS011;59485;43.542;-5.676;2022-09-21T02:58:53;6.53;;;0.95;;
71637;SDS011;59485;43.542;-5.676;2022-09-21T03:01:21;5.35;;;0.88;;
71637;SDS011;59485;43.542;-5.676;2022-09-21T03:03:50;4.80;;;0.50;;
71637;SDS011;59485;43.542;-5.676;2022-09-21T03:06:15;7.23;;;0.80;;
71637;SDS011;59485;43.542;-5.676;2022-09-21T03:08:41;5.85;;;0.60;;
71637;SDS011;59485;43.542;-5.676;2022-09-21T03:11:07;8.30;;;0.63;;
71637;SDS011;59485;43.542;-5.676;2022-09-21T03:13:35;3.58;;;0.50;;
71637;SDS011;59485;43.542;-5.676;2022-09-21T03:16:02;6.20;;;1.23;;
71637;SDS011;59485;43.542;-5.676;2022-09-21T03:18:29;6.25;;;1.10;;
71637;SDS011;59485;43.542;-5.676;2022-09-21T03:20:56;7.03;;;1.07;;
71637;SDS011;59485;43.542;-5.676;2022-09-21T03:23:22;5.03;;;0.80;;
71637;SDS011;59485;43.542;-5.676;2022-09-21T03:25:47;5.37;;;0.70;;
71637;SDS011;59485;43.542;-5.676;2022-09-21T03:28:13;6.13;;;1.40;;
71637;SDS011;59485;43.542;-5.676;2022-09-21T03:30:40;6.93;;;1.45;;
71637;SDS011;59485;43.542;-5.676;2022-09-21T03:33:06;5.33;;;1.40;;
71637;SDS011;59485;43.542;-5.676;2022-09-21T03:35:32;12.15;;;1.58;;
71637;SDS011;59485;43.542;-5.676;2022-09-21T03:37:58;7.25;;;1.58;;
71637;SDS011;59485;43.542;-5.676;2022-09-21T03:40:24;6.95;;;1.88;;
71637;SDS011;59485;43.542;-5.676;2022-09-21T03:42:51;10.73;;;2.13;;
71637;SDS011;59485;43.542;-5.676;2022-09-21T03:45:17;10.55;;;2.22;;
71637;SDS011;59485;43.542;-5.676;2022-09-21T03:47:43;11.43;;;2.65;;
71637;SDS011;59485;43.542;-5.676;2022-09-21T03:50:09;9.73;;;2.50;;
71637;SDS011;59485;43.542;-5.676;2022-09-21T03:52:36;11.63;;;2.47;;
71637;SDS011;59485;43.542;-5.676;2022-09-21T03:55:03;10.10;;;2.65;;
71637;SDS011;59485;43.542;-5.676;2022-09-21T03:57:31;12.15;;;2.50;;
71637;SDS011;59485;43.542;-5.676;2022-09-21T03:59:58;8.07;;;2.60;;
71637;SDS011;59485;43.542;-5.676;2022-09-21T04:02:24;9.80;;;2.63;;
71637;SDS011;59485;43.542;-5.676;2022-09-21T04:04:50;12.38;;;3.13;;
71637;SDS011;59485;43.542;-5.676;2022-09-21T04:07:15;8.83;;;2.87;;
71637;SDS011;59485;43.542;-5.676;2022-09-21T04:09:41;10.90;;;3.13;;
71637;SDS011;59485;43.542;-5.676;2022-09-21T04:12:07;9.07;;;3.53;;
71637;SDS011;59485;43.542;-5.676;2022-09-21T04:14:32;11.40;;;3.08;;
71637;SDS011;59485;43.542;-5.676;2022-09-21T04:16:58;6.97;;;2.50;;
71637;SDS011;59485;43.542;-5.676;2022-09-21T04:19:24;11.18;;;2.47;;
71637;SDS011;59485;43.542;-5.676;2022-09-21T04:21:49;13.47;;;2.83;;
71637;SDS011;59485;43.542;-5.676;2022-09-21T04:24:19;10.38;;;3.08;;
71637;SDS011;59485;43.542;-5.676;2022-09-21T04:26:46;12.32;;;2.90;;
71637;SDS011;59485;43.542;-5.676;2022-09-21T04:29:12;11.87;;;2.80;;
71637;SDS011;59485;43.542;-5.676;2022-09-21T04:31:38;11.27;;;2.35;;
71637;SDS011;59485;43.542;-5.676;2022-09-21T04:34:04;9.68;;;2.60;;
71637;SDS011;59485;43.542;-5.676;2022-09-21T04:36:30;9.63;;;2.80;;
71637;SDS011;59485;43.542;-5.676;2022-09-21T04:38:56;7.38;;;2.92;;
71637;SDS011;59485;43.542;-5.676;2022-09-21T04:41:24;11.07;;;3.53;;
71637;SDS011;59485;43.542;-5.676;2022-09-21T04:43:50;8.05;;;2.72;;
71637;SDS011;59485;43.542;-5.676;2022-09-21T04:46:16;7.90;;;2.87;;
71637;SDS011;59485;43.542;-5.676;2022-09-21T04:48:43;10.20;;;2.90;;
71637;SDS011;59485;43.542;-5.676;2022-09-21T04:51:09;13.13;;;3.20;;
71637;SDS011;59485;43.542;-5.676;2022-09-21T04:53:36;12.83;;;3.80;;
71637;SDS011;59485;43.542;-5.676;2022-09-21T04:56:03;13.57;;;3.75;;
71637;SDS011;59485;43.542;-5.676;2022-09-21T04:58:32;11.27;;;3.85;;
71637;SDS011;59485;43.542;-5.676;2022-09-21T05:00:58;12.88;;;3.50;;
71637;SDS011;59485;43.542;-5.676;2022-09-21T05:03:25;10.65;;;3.42;;
71637;SDS011;59485;43.542;-5.676;2022-09-21T05:05:51;11.23;;;3.17;;
71637;SDS011;59485;43.542;-5.676;2022-09-21T05:08:19;14.18;;;3.10;;
71637;SDS011;59485;43.542;-5.676;2022-09-21T05:11:04;13.75;;;3.50;;
71637;SDS011;59485;43.542;-5.676;2022-09-21T05:13:34;15.27;;;3.90;;
71637;SDS011;59485;43.542;-5.676;2022-09-21T05:15:59;10.13;;;3.10;;
71637;SDS011;59485;43.542;-5.676;2022-09-21T05:18:26;13.30;;;3.00;;
71637;SDS011;59485;43.542;-5.676;2022-09-21T05:20:55;18.20;;;5.20;;
71637;SDS011;59485;43.542;-5.676;2022-09-21T05:23:22;14.63;;;4.37;;
71637;SDS011;59485;43.542;-5.676;2022-09-21T05:25:48;16.77;;;4.63;;
71637;SDS011;59485;43.542;-5.676;2022-09-21T05:28:14;15.50;;;5.40;;
71637;SDS011;59485;43.542;-5.676;2022-09-21T05:30:41;16.93;;;4.97;;
71637;SDS011;59485;43.542;-5.676;2022-09-21T05:33:09;16.60;;;4.90;;
71637;SDS011;59485;43.542;-5.676;2022-09-21T05:35:41;17.10;;;5.07;;
71637;SDS011;59485;43.542;-5.676;2022-09-21T05:38:18;20.00;;;6.68;;
71637;SDS011;59485;43.542;-5.676;2022-09-21T05:40:44;21.77;;;6.43;;
71637;SDS011;59485;43.542;-5.676;2022-09-21T05:43:11;17.63;;;6.20;;
71637;SDS011;59485;43.542;-5.676;2022-09-21T05:45:39;23.85;;;6.32;;
71637;SDS011;59485;43.542;-5.676;2022-09-21T05:56:05;19.63;;;5.57;;
71637;SDS011;59485;43.542;-5.676;2022-09-21T05:58:51;22.38;;;6.90;;
71637;SDS011;59485;43.542;-5.676;2022-09-21T06:01:53;21.10;;;6.75;;
71637;SDS011;59485;43.542;-5.676;2022-09-21T06:04:22;18.85;;;6.35;;
71637;SDS011;59485;43.542;-5.676;2022-09-21T06:06:48;18.23;;;7.05;;
71637;SDS011;59485;43.542;-5.676;2022-09-21T06:09:14;20.00;;;7.03;;
71637;SDS011;59485;43.542;-5.676;2022-09-21T06:11:39;20.23;;;7.77;;
71637;SDS011;59485;43.542;-5.676;2022-09-21T06:14:05;21.45;;;7.53;;
71637;SDS011;59485;43.542;-5.676;2022-09-21T06:16:40;19.10;;;7.40;;
71637;SDS011;59485;43.542;-5.676;2022-09-21T06:19:09;22.38;;;6.97;;
71637;SDS011;59485;43.542;-5.676;2022-09-21T06:21:36;18.55;;;4.80;;
71637;SDS011;59485;43.542;-5.676;2022-09-21T06:24:01;16.57;;;4.37;;
71637;SDS011;59485;43.542;-5.676;2022-09-21T06:26:27;13.80;;;4.80;;
71637;SDS011;59485;43.542;-5.676;2022-09-21T06:28:53;28.60;;;5.60;;
71637;SDS011;59485;43.542;-5.676;2022-09-21T06:31:19;13.85;;;4.90;;
71637;SDS011;59485;43.542;-5.676;2022-09-21T06:33:44;19.63;;;5.53;;
71637;SDS011;59485;43.542;-5.676;2022-09-21T06:36:10;22.30;;;6.97;;
71637;SDS011;59485;43.542;-5.676;2022-09-21T06:38:35;17.38;;;7.20;;
71637;SDS011;59485;43.542;-5.676;2022-09-21T06:41:01;23.00;;;8.03;;
71637;SDS011;59485;43.542;-5.676;2022-09-21T06:43:28;19.02;;;6.55;;
71637;SDS011;59485;43.542;-5.676;2022-09-21T06:45:55;19.83;;;6.30;;
71637;SDS011;59485;43.542;-5.676;2022-09-21T06:48:22;23.42;;;6.05;;
71637;SDS011;59485;43.542;-5.676;2022-09-21T06:50:49;17.80;;;6.03;;
71637;SDS011;59485;43.542;-5.676;2022-09-21T06:53:14;18.75;;;5.70;;
71637;SDS011;59485;43.542;-5.676;2022-09-21T06:55:41;15.98;;;5.07;;
71637;SDS011;59485;43.542;-5.676;2022-09-21T06:58:06;17.47;;;4.57;;
71637;SDS011;59485;43.542;-5.676;2022-09-21T07:00:33;18.40;;;5.57;;
71637;SDS011;59485;43.542;-5.676;2022-09-21T07:02:59;14.77;;;4.18;;
71637;SDS011;59485;43.542;-5.676;2022-09-21T07:05:24;19.33;;;4.50;;
71637;SDS011;59485;43.542;-5.676;2022-09-21T07:07:50;20.55;;;4.80;;
71637;SDS011;59485;43.542;-5.676;2022-09-21T07:10:21;19.30;;;3.90;;
71637;SDS011;59485;43.542;-5.676;2022-09-21T07:12:47;15.70;;;4.20;;
71637;SDS011;59485;43.542;-5.676;2022-09-21T07:15:15;21.00;;;4.68;;
71637;SDS011;59485;43.542;-5.676;2022-09-21T07:17:40;10.77;;;3.50;;
71637;SDS011;59485;43.542;-5.676;2022-09-21T07:20:08;12.93;;;3.22;;
71637;SDS011;59485;43.542;-5.676;2022-09-21T07:22:34;14.23;;;3.63;;
71637;SDS011;59485;43.542;-5.676;2022-09-21T07:25:00;16.35;;;4.53;;
71637;SDS011;59485;43.542;-5.676;2022-09-21T07:27:27;15.38;;;4.32;;
71637;SDS011;59485;43.542;-5.676;2022-09-21T07:29:54;10.67;;;4.50;;
71637;SDS011;59485;43.542;-5.676;2022-09-21T07:32:20;15.35;;;4.38;;
71637;SDS011;59485;43.542;-5.676;2022-09-21T07:34:45;17.57;;;4.90;;
71637;SDS011;59485;43.542;-5.676;2022-09-21T07:37:11;13.60;;;4.60;;
71637;SDS011;59485;43.542;-5.676;2022-09-21T07:39:37;15.50;;;4.88;;
71637;SDS011;59485;43.542;-5.676;2022-09-21T07:42:03;12.90;;;4.80;;
71637;SDS011;59485;43.542;-5.676;2022-09-21T07:44:29;16.90;;;4.47;;
71637;SDS011;59485;43.542;-5.676;2022-09-21T07:46:55;15.10;;;4.57;;
71637;SDS011;59485;43.542;-5.676;2022-09-21T07:49:20;14.63;;;5.37;;
71637;SDS011;59485;43.542;-5.676;2022-09-21T07:51:46;25.87;;;5.07;;
71637;SDS011;59485;43.542;-5.676;2022-09-21T07:54:12;18.52;;;5.60;;
71637;SDS011;59485;43.542;-5.676;2022-09-21T07:56:39;18.57;;;5.43;;
71637;SDS011;59485;43.542;-5.676;2022-09-21T07:59:04;22.45;;;5.80;;
71637;SDS011;59485;43.542;-5.676;2022-09-21T08:01:30;21.73;;;6.73;;
71637;SDS011;59485;43.542;-5.676;2022-09-21T08:04:00;25.63;;;7.03;;
71637;SDS011;59485;43.542;-5.676;2022-09-21T08:06:27;20.63;;;6.88;;
71637;SDS011;59485;43.542;-5.676;2022-09-21T08:08:55;18.95;;;7.63;;
71637;SDS011;59485;43.542;-5.676;2022-09-21T08:11:20;20.37;;;7.63;;
71637;SDS011;59485;43.542;-5.676;2022-09-21T08:13:47;22.98;;;7.05;;
71637;SDS011;59485;43.542;-5.676;2022-09-21T08:16:13;16.27;;;5.18;;
71637;SDS011;59485;43.542;-5.676;2022-09-21T08:18:39;23.97;;;6.20;;
71637;SDS011;59485;43.542;-5.676;2022-09-21T08:21:06;20.13;;;5.47;;
71637;SDS011;59485;43.542;-5.676;2022-09-21T08:23:32;16.23;;;5.50;;
71637;SDS011;59485;43.542;-5.676;2022-09-21T08:25:58;16.05;;;4.63;;
71637;SDS011;59485;43.542;-5.676;2022-09-21T08:28:25;15.37;;;4.80;;
71637;SDS011;59485;43.542;-5.676;2022-09-21T08:31:02;18.33;;;5.28;;
71637;SDS011;59485;43.542;-5.676;2022-09-21T08:33:29;30.27;;;7.88;;
71637;SDS011;59485;43.542;-5.676;2022-09-21T08:35:55;22.40;;;6.93;;
71637;SDS011;59485;43.542;-5.676;2022-09-21T08:38:23;26.92;;;6.53;;
71637;SDS011;59485;43.542;-5.676;2022-09-21T08:40:49;16.30;;;4.30;;
71637;SDS011;59485;43.542;-5.676;2022-09-21T08:46:09;13.57;;;3.40;;
71637;SDS011;59485;43.542;-5.676;2022-09-21T08:48:43;15.57;;;3.80;;
71637;SDS011;59485;43.542;-5.676;2022-09-21T08:51:16;13.98;;;3.72;;
71637;SDS011;59485;43.542;-5.676;2022-09-21T08:53:48;10.00;;;3.03;;
71637;SDS011;59485;43.542;-5.676;2022-09-21T08:56:17;10.88;;;2.63;;
71637;SDS011;59485;43.542;-5.676;2022-09-21T08:58:46;9.90;;;2.83;;
71637;SDS011;59485;43.542;-5.676;2022-09-21T09:04:18;10.23;;;2.28;;
71637;SDS011;59485;43.542;-5.676;2022-09-21T09:09:38;10.25;;;2.33;;
71637;SDS011;59485;43.542;-5.676;2022-09-21T09:12:29;8.23;;;1.92;;
71637;SDS011;59485;43.542;-5.676;2022-09-21T09:17:44;4.93;;;0.77;;
71637;SDS011;59485;43.542;-5.676;2022-09-21T09:23:11;5.97;;;1.40;;
71637;SDS011;59485;43.542;-5.676;2022-09-21T09:25:41;4.90;;;0.80;;
71637;SDS011;59485;43.542;-5.676;2022-09-21T09:28:20;7.93;;;1.33;;
71637;SDS011;59485;43.542;-5.676;2022-09-21T09:30:57;8.05;;;1.15;;
71637;SDS011;59485;43.542;-5.676;2022-09-21T09:36:17;8.40;;;1.53;;
71637;SDS011;59485;43.542;-5.676;2022-09-21T09:47:25;7.30;;;1.92;;
71637;SDS011;59485;43.542;-5.676;2022-09-21T09:52:42;7.82;;;1.98;;
71637;SDS011;59485;43.542;-5.676;2022-09-21T09:55:14;8.57;;;2.67;;
71637;SDS011;59485;43.542;-5.676;2022-09-21T09:57:44;7.65;;;2.30;;
71637;SDS011;59485;43.542;-5.676;2022-09-21T10:00:12;8.88;;;3.10;;
71637;SDS011;59485;43.542;-5.676;2022-09-21T10:02:49;6.57;;;1.40;;
71637;SDS011;59485;43.542;-5.676;2022-09-21T10:08:52;5.45;;;0.98;;
71637;SDS011;59485;43.542;-5.676;2022-09-21T10:11:03;7.80;;;0.90;;
71637;SDS011;59485;43.542;-5.676;2022-09-21T10:13:33;9.05;;;0.88;;
71637;SDS011;59485;43.542;-5.676;2022-09-21T10:18:51;7.00;;;1.90;;
71637;SDS011;59485;43.542;-5.676;2022-09-21T10:23:55;8.30;;;1.35;;
71637;SDS011;59485;43.542;-5.676;2022-09-21T10:26:29;7.20;;;1.70;;
71637;SDS011;59485;43.542;-5.676;2022-09-21T10:31:26;9.68;;;1.30;;
71637;SDS011;59485;43.542;-5.676;2022-09-21T10:36:29;9.10;;;3.30;;
71637;SDS011;59485;43.542;-5.676;2022-09-21T10:41:59;15.57;;;5.40;;
71637;SDS011;59485;43.542;-5.676;2022-09-21T10:45:33;6.57;;;2.25;;
71637;SDS011;59485;43.542;-5.676;2022-09-21T10:47:36;9.18;;;2.80;;
71637;SDS011;59485;43.542;-5.676;2022-09-21T10:50:20;16.65;;;1.90;;
71637;SDS011;59485;43.542;-5.676;2022-09-21T10:53:35;9.00;;;2.30;;
71637;SDS011;59485;43.542;-5.676;2022-09-21T10:58:36;10.80;;;3.15;;
71637;SDS011;59485;43.542;-5.676;2022-09-21T11:01:19;10.88;;;2.10;;
71637;SDS011;59485;43.542;-5.676;2022-09-21T11:03:58;7.10;;;1.42;;
71637;SDS011;59485;43.542;-5.676;2022-09-21T11:06:36;11.02;;;4.18;;
71637;SDS011;59485;43.542;-5.676;2022-09-21T11:09:13;8.43;;;2.50;;
71637;SDS011;59485;43.542;-5.676;2022-09-21T11:17:11;7.00;;;1.90;;
71637;SDS011;59485;43.542;-5.676;2022-09-21T11:22:42;13.10;;;3.03;;
71637;SDS011;59485;43.542;-5.676;2022-09-21T11:25:22;9.55;;;1.90;;
71637;SDS011;59485;43.542;-5.676;2022-09-21T11:28:01;7.17;;;1.43;;
71637;SDS011;59485;43.542;-5.676;2022-09-21T11:33:38;9.20;;;2.00;;
71637;SDS011;59485;43.542;-5.676;2022-09-21T11:47:16;8.90;;;1.67;;
71637;SDS011;59485;43.542;-5.676;2022-09-21T11:55:51;8.45;;;2.10;;
71637;SDS011;59485;43.542;-5.676;2022-09-21T12:04:43;6.82;;;1.52;;
71637;SDS011;59485;43.542;-5.676;2022-09-21T12:07:19;10.27;;;1.30;;
71637;SDS011;59485;43.542;-5.676;2022-09-21T12:10:16;6.90;;;1.38;;
71637;SDS011;59485;43.542;-5.676;2022-09-21T12:13:15;7.90;;;1.70;;
71637;SDS011;59485;43.542;-5.676;2022-09-21T12:15:57;9.10;;;2.07;;
71637;SDS011;59485;43.542;-5.676;2022-09-21T12:21:15;15.25;;;3.42;;
71637;SDS011;59485;43.542;-5.676;2022-09-21T12:23:56;8.30;;;1.40;;
71637;SDS011;59485;43.542;-5.676;2022-09-21T12:26:28;8.65;;;2.47;;
71637;SDS011;59485;43.542;-5.676;2022-09-21T12:29:02;11.73;;;1.87;;
71637;SDS011;59485;43.542;-5.676;2022-09-21T12:31:41;7.82;;;2.20;;
71637;SDS011;59485;43.542;-5.676;2022-09-21T12:34:17;7.80;;;2.22;;
71637;SDS011;59485;43.542;-5.676;2022-09-21T12:36:53;10.85;;;3.92;;
71637;SDS011;59485;43.542;-5.676;2022-09-21T12:39:30;7.07;;;2.28;;
71637;SDS011;59485;43.542;-5.676;2022-09-21T12:45:05;7.65;;;2.17;;
71637;SDS011;59485;43.542;-5.676;2022-09-21T12:47:40;10.52;;;3.10;;
71637;SDS011;59485;43.542;-5.676;2022-09-21T12:53:14;12.68;;;2.88;;
71637;SDS011;59485;43.542;-5.676;2022-09-21T13:01:05;16.77;;;2.47;;
71637;SDS011;59485;43.542;-5.676;2022-09-21T13:03:44;9.60;;;1.42;;
71637;SDS011;59485;43.542;-5.676;2022-09-21T13:09:19;9.60;;;1.50;;
71637;SDS011;59485;43.542;-5.676;2022-09-21T13:11:53;8.45;;;1.58;;
71637;SDS011;59485;43.542;-5.676;2022-09-21T13:14:24;11.35;;;2.90;;
71637;SDS011;59485;43.542;-5.676;2022-09-21T13:16:54;7.15;;;1.92;;
71637;SDS011;59485;43.542;-5.676;2022-09-21T13:19:23;9.60;;;2.63;;
71637;SDS011;59485;43.542;-5.676;2022-09-21T13:24:56;12.73;;;2.40;;
71637;SDS011;59485;43.542;-5.676;2022-09-21T13:28:18;7.20;;;1.33;;
71637;SDS011;59485;43.542;-5.676;2022-09-21T13:30:40;7.75;;;1.50;;
71637;SDS011;59485;43.542;-5.676;2022-09-21T13:49:22;9.73;;;2.20;;
71637;SDS011;59485;43.542;-5.676;2022-09-21T13:54:48;8.45;;;1.92;;
71637;SDS011;59485;43.542;-5.676;2022-09-21T14:00:01;11.63;;;4.22;;
71637;SDS011;59485;43.542;-5.676;2022-09-21T14:02:34;11.07;;;2.20;;
71637;SDS011;59485;43.542;-5.676;2022-09-21T14:08:00;15.30;;;3.30;;
71637;SDS011;59485;43.542;-5.676;2022-09-21T14:10:30;9.82;;;3.15;;
71637;SDS011;59485;43.542;-5.676;2022-09-21T14:12:58;12.95;;;5.60;;
71637;SDS011;59485;43.542;-5.676;2022-09-21T14:24:43;11.52;;;2.20;;
71637;SDS011;59485;43.542;-5.676;2022-09-21T14:26:46;13.15;;;3.83;;
71637;SDS011;59485;43.542;-5.676;2022-09-21T14:29:21;10.87;;;2.47;;
71637;SDS011;59485;43.542;-5.676;2022-09-21T14:31:53;9.10;;;2.05;;
71637;SDS011;59485;43.542;-5.676;2022-09-21T14:34:23;17.58;;;2.65;;
71637;SDS011;59485;43.542;-5.676;2022-09-21T14:36:53;11.88;;;1.85;;
71637;SDS011;59485;43.542;-5.676;2022-09-21T14:39:27;11.98;;;1.40;;
71637;SDS011;59485;43.542;-5.676;2022-09-21T14:41:57;10.40;;;1.10;;
71637;SDS011;59485;43.542;-5.676;2022-09-21T14:44:29;13.60;;;1.42;;
71637;SDS011;59485;43.542;-5.676;2022-09-21T15:04:02;5.93;;;0.95;;
71637;SDS011;59485;43.542;-5.676;2022-09-21T15:13:13;12.13;;;1.10;;
71637;SDS011;59485;43.542;-5.676;2022-09-21T15:18:24;6.70;;;0.90;;
71637;SDS011;59485;43.542;-5.676;2022-09-21T15:20:56;11.30;;;1.33;;
71637;SDS011;59485;43.542;-5.676;2022-09-21T15:23:37;9.95;;;1.25;;
71637;SDS011;59485;43.542;-5.676;2022-09-21T15:26:07;9.35;;;1.30;;
71637;SDS011;59485;43.542;-5.676;2022-09-21T15:28:43;20.15;;;1.70;;
71637;SDS011;59485;43.542;-5.676;2022-09-21T15:31:14;16.50;;;2.13;;
71637;SDS011;59485;43.542;-5.676;2022-09-21T15:33:42;19.90;;;1.40;;
71637;SDS011;59485;43.542;-5.676;2022-09-21T15:36:12;8.80;;;1.13;;
71637;SDS011;59485;43.542;-5.676;2022-09-21T15:38:58;10.75;;;1.40;;
71637;SDS011;59485;43.542;-5.676;2022-09-21T15:41:45;9.13;;;1.30;;
71637;SDS011;59485;43.542;-5.676;2022-09-21T15:44:17;8.85;;;1.50;;
71637;SDS011;59485;43.542;-5.676;2022-09-21T15:46:47;12.77;;;1.80;;
71637;SDS011;59485;43.542;-5.676;2022-09-21T15:49:17;8.43;;;0.98;;
71637;SDS011;59485;43.542;-5.676;2022-09-21T15:51:56;13.20;;;1.58;;
71637;SDS011;59485;43.542;-5.676;2022-09-21T15:54:39;11.30;;;1.57;;
71637;SDS011;59485;43.542;-5.676;2022-09-21T15:57:29;9.15;;;1.73;;
71637;SDS011;59485;43.542;-5.676;2022-09-21T16:00:05;16.10;;;1.88;;
71637;SDS011;59485;43.542;-5.676;2022-09-21T16:03:04;7.97;;;1.77;;
71637;SDS011;59485;43.542;-5.676;2022-09-21T16:05:41;8.40;;;1.80;;
71637;SDS011;59485;43.542;-5.676;2022-09-21T16:08:28;9.97;;;1.67;;
71637;SDS011;59485;43.542;-5.676;2022-09-21T16:14:02;11.40;;;2.58;;
71637;SDS011;59485;43.542;-5.676;2022-09-21T16:22:11;9.73;;;1.80;;
71637;SDS011;59485;43.542;-5.676;2022-09-21T16:24:45;11.70;;;1.63;;
71637;SDS011;59485;43.542;-5.676;2022-09-21T16:27:17;9.50;;;1.27;;
71637;SDS011;59485;43.542;-5.676;2022-09-21T16:29:44;8.85;;;1.40;;
71637;SDS011;59485;43.542;-5.676;2022-09-21T16:34:46;8.23;;;1.50;;
71637;SDS011;59485;43.542;-5.676;2022-09-21T16:37:20;9.68;;;1.48;;
71637;SDS011;59485;43.542;-5.676;2022-09-21T16:39:51;10.93;;;1.57;;
71637;SDS011;59485;43.542;-5.676;2022-09-21T16:42:18;7.95;;;1.00;;
71637;SDS011;59485;43.542;-5.676;2022-09-21T16:44:45;11.05;;;1.67;;
71637;SDS011;59485;43.542;-5.676;2022-09-21T16:49:49;7.38;;;1.30;;
71637;SDS011;59485;43.542;-5.676;2022-09-21T16:52:23;8.73;;;1.10;;
71637;SDS011;59485;43.542;-5.676;2022-09-21T16:54:52;11.57;;;1.48;;
71637;SDS011;59485;43.542;-5.676;2022-09-21T16:57:20;10.38;;;1.83;;
71637;SDS011;59485;43.542;-5.676;2022-09-21T16:59:47;12.00;;;1.67;;
71637;SDS011;59485;43.542;-5.676;2022-09-21T17:02:14;10.75;;;2.05;;
71637;SDS011;59485;43.542;-5.676;2022-09-21T17:04:41;7.07;;;1.47;;
71637;SDS011;59485;43.542;-5.676;2022-09-21T17:07:09;10.90;;;1.60;;
71637;SDS011;59485;43.542;-5.676;2022-09-21T17:09:37;9.68;;;1.42;;
71637;SDS011;59485;43.542;-5.676;2022-09-21T17:12:08;7.50;;;1.30;;
71637;SDS011;59485;43.542;-5.676;2022-09-21T17:14:35;10.75;;;1.30;;
71637;SDS011;59485;43.542;-5.676;2022-09-21T17:19:34;8.18;;;1.10;;
71637;SDS011;59485;43.542;-5.676;2022-09-21T17:22:03;10.65;;;1.50;;
71637;SDS011;59485;43.542;-5.676;2022-09-21T17:24:29;8.98;;;1.63;;
71637;SDS011;59485;43.542;-5.676;2022-09-21T17:26:55;10.50;;;1.85;;
71637;SDS011;59485;43.542;-5.676;2022-09-21T17:29:21;11.40;;;2.40;;
71637;SDS011;59485;43.542;-5.676;2022-09-21T17:31:51;8.40;;;2.05;;
71637;SDS011;59485;43.542;-5.676;2022-09-21T17:34:24;12.32;;;1.67;;
71637;SDS011;59485;43.542;-5.676;2022-09-21T17:36:51;9.80;;;2.90;;
71637;SDS011;59485;43.542;-5.676;2022-09-21T17:39:31;9.27;;;3.67;;
71637;SDS011;59485;43.542;-5.676;2022-09-21T17:41:58;12.55;;;4.85;;
71637;SDS011;59485;43.542;-5.676;2022-09-21T17:47:24;12.23;;;3.15;;
71637;SDS011;59485;43.542;-5.676;2022-09-21T17:49:58;11.07;;;3.23;;
71637;SDS011;59485;43.542;-5.676;2022-09-21T17:52:32;8.82;;;2.75;;
71637;SDS011;59485;43.542;-5.676;2022-09-21T17:55:16;7.57;;;2.28;;
71637;SDS011;59485;43.542;-5.676;2022-09-21T18:00:35;10.70;;;2.40;;
71637;SDS011;59485;43.542;-5.676;2022-09-21T18:03:21;10.80;;;2.95;;
71637;SDS011;59485;43.542;-5.676;2022-09-21T18:05:49;9.40;;;2.17;;
71637;SDS011;59485;43.542;-5.676;2022-09-21T18:08:19;13.85;;;6.10;;
71637;SDS011;59485;43.542;-5.676;2022-09-21T18:10:48;12.30;;;3.57;;
71637;SDS011;59485;43.542;-5.676;2022-09-21T18:13:39;20.85;;;8.32;;
71637;SDS011;59485;43.542;-5.676;2022-09-21T18:21:49;8.88;;;2.97;;
71637;SDS011;59485;43.542;-5.676;2022-09-21T18:24:24;9.50;;;2.03;;
71637;SDS011;59485;43.542;-5.676;2022-09-21T18:26:55;7.97;;;1.88;;
71637;SDS011;59485;43.542;-5.676;2022-09-21T18:29:31;6.22;;;1.88;;
71637;SDS011;59485;43.542;-5.676;2022-09-21T18:42:23;10.20;;;3.90;;
71637;SDS011;59485;43.542;-5.676;2022-09-21T18:45:15;15.38;;;5.72;;
71637;SDS011;59485;43.542;-5.676;2022-09-21T18:47:46;8.27;;;2.80;;
71637;SDS011;59485;43.542;-5.676;2022-09-21T18:53:08;8.07;;;1.98;;
71637;SDS011;59485;43.542;-5.676;2022-09-21T18:55:42;8.77;;;1.85;;
71637;SDS011;59485;43.542;-5.676;2022-09-21T18:58:09;8.80;;;2.35;;
71637;SDS011;59485;43.542;-5.676;2022-09-21T19:00:35;10.57;;;1.77;;